sensor_id;sensor_type;location;lat;lon;timestamp;temperature;humidity
14709;DHT22;7445;50.774;4.944;2023-05-10T07:19:49;13.00;99.90
14709;DHT22;7445;50.774;4.944;2023-05-10T07:22:15;13.00;99.90
14709;DHT22;7445;50.774;4.944;2023-05-10T07:24:42;13.10;99.90
14709;DHT22;7445;50.774;4.944;2023-05-10T07:27:10;13.10;99.90
14709;DHT22;7445;50.774;4.944;2023-05-10T07:29:35;13.10;99.90
14709;DHT22;7445;50.774;4.944;2023-05-10T07:32:01;13.10;99.90
14709;DHT22;7445;50.774;4.944;2023-05-10T07:34:27;13.20;99.90
14709;DHT22;7445;50.774;4.944;2023-05-10T07:36:54;13.10;99.90
14709;DHT22;7445;50.774;4.944;2023-05-10T07:39:20;13.20;99.90
14709;DHT22;7445;50.774;4.944;2023-05-10T07:41:47;13.20;99.90
14709;DHT22;7445;50.774;4.944;2023-05-10T07:44:13;13.10;99.90
14709;DHT22;7445;50.774;4.944;2023-05-10T07:46:38;13.20;99.90
14709;DHT22;7445;50.774;4.944;2023-05-10T07:49:04;13.30;99.90
14709;DHT22;7445;50.774;4.944;2023-05-10T07:51:30;13.30;99.90
14709;DHT22;7445;50.774;4.944;2023-05-10T07:53:55;13.30;99.90
14709;DHT22;7445;50.774;4.944;2023-05-10T07:56:30;13.40;99.90
14709;DHT22;7445;50.774;4.944;2023-05-10T07:59:00;13.50;99.90
14709;DHT22;7445;50.774;4.944;2023-05-10T08:01:26;13.50;99.90
14709;DHT22;7445;50.774;4.944;2023-05-10T08:03:52;13.50;99.90
14709;DHT22;7445;50.774;4.944;2023-05-10T08:06:19;13.50;99.90
14709;DHT22;7445;50.774;4.944;2023-05-10T08:08:46;13.50;99.90
14709;DHT22;7445;50.774;4.944;2023-05-10T08:11:15;13.60;99.90
14709;DHT22;7445;50.774;4.944;2023-05-10T08:13:41;13.60;99.90
14709;DHT22;7445;50.774;4.944;2023-05-10T08:16:07;13.60;99.90
14709;DHT22;7445;50.774;4.944;2023-05-10T08:18:33;13.50;99.90
14709;DHT22;7445;50.774;4.944;2023-05-10T08:20:58;13.60;99.90
14709;DHT22;7445;50.774;4.944;2023-05-10T08:23:24;13.60;99.90
14709;DHT22;7445;50.774;4.944;2023-05-10T08:25:50;13.70;99.90
14709;DHT22;7445;50.774;4.944;2023-05-10T08:28:15;13.70;99.90
14709;DHT22;7445;50.774;4.944;2023-05-10T08:30:41;13.70;99.90
14709;DHT22;7445;50.774;4.944;2023-05-10T08:33:08;13.80;99.90
14709;DHT22;7445;50.774;4.944;2023-05-10T08:35:33;13.80;99.90
14709;DHT22;7445;50.774;4.944;2023-05-10T08:38:00;13.90;99.90
14709;DHT22;7445;50.774;4.944;2023-05-10T08:40:26;13.90;99.90
14709;DHT22;7445;50.774;4.944;2023-05-10T08:43:06;13.90;99.90
14709;DHT22;7445;50.774;4.944;2023-05-10T08:45:37;14.10;99.90
14709;DHT22;7445;50.774;4.944;2023-05-10T08:48:06;14.10;99.90
14709;DHT22;7445;50.774;4.944;2023-05-10T08:50:36;14.10;99.90
14709;DHT22;7445;50.774;4.944;2023-05-10T08:53:05;14.20;99.90
14709;DHT22;7445;50.774;4.944;2023-05-10T08:55:32;14.30;99.90
14709;DHT22;7445;50.774;4.944;2023-05-10T08:57:59;14.40;99.90
14709;DHT22;7445;50.774;4.944;2023-05-10T09:00:26;14.40;99.90
14709;DHT22;7445;50.774;4.944;2023-05-10T09:02:52;14.40;99.90
14709;DHT22;7445;50.774;4.944;2023-05-10T09:05:18;14.50;99.90
14709;DHT22;7445;50.774;4.944;2023-05-10T09:07:45;14.50;99.90
14709;DHT22;7445;50.774;4.944;2023-05-10T09:10:13;14.50;99.90
14709;DHT22;7445;50.774;4.944;2023-05-10T09:12:39;14.50;99.90
14709;DHT22;7445;50.774;4.944;2023-05-10T09:15:08;14.50;99.90
14709;DHT22;7445;50.774;4.944;2023-05-10T09:17:35;14.60;99.90
14709;DHT22;7445;50.774;4.944;2023-05-10T09:20:03;14.70;99.90
14709;DHT22;7445;50.774;4.944;2023-05-10T09:22:32;14.70;99.90
14709;DHT22;7445;50.774;4.944;2023-05-10T09:27:35;14.70;99.90
14709;DHT22;7445;50.774;4.944;2023-05-10T09:30:02;14.60;99.90
14709;DHT22;7445;50.774;4.944;2023-05-10T09:35:11;14.60;99.90
14709;DHT22;7445;50.774;4.944;2023-05-10T09:37:39;14.60;99.90
14709;DHT22;7445;50.774;4.944;2023-05-10T09:40:22;14.60;99.90
14709;DHT22;7445;50.774;4.944;2023-05-10T09:42:52;14.60;99.90
14709;DHT22;7445;50.774;4.944;2023-05-10T09:45:18;14.70;99.90
14709;DHT22;7445;50.774;4.944;2023-05-10T09:47:45;14.80;99.90
14709;DHT22;7445;50.774;4.944;2023-05-10T09:50:12;14.70;99.90
14709;DHT22;7445;50.774;4.944;2023-05-10T09:52:58;14.80;99.90
14709;DHT22;7445;50.774;4.944;2023-05-10T09:55:26;14.80;99.90
14709;DHT22;7445;50.774;4.944;2023-05-10T09:58:01;15.00;99.90
14709;DHT22;7445;50.774;4.944;2023-05-10T10:00:27;15.00;99.90
14709;DHT22;7445;50.774;4.944;2023-05-10T10:02:57;15.10;99.90
14709;DHT22;7445;50.774;4.944;2023-05-10T10:05:34;15.20;99.90
14709;DHT22;7445;50.774;4.944;2023-05-10T10:08:03;15.20;99.90
14709;DHT22;7445;50.774;4.944;2023-05-10T10:10:31;15.20;99.90
14709;DHT22;7445;50.774;4.944;2023-05-10T10:12:57;15.20;99.90
14709;DHT22;7445;50.774;4.944;2023-05-10T10:15:23;15.20;99.90
14709;DHT22;7445;50.774;4.944;2023-05-10T10:17:50;15.20;99.90
14709;DHT22;7445;50.774;4.944;2023-05-10T10:20:18;15.30;99.90
14709;DHT22;7445;50.774;4.944;2023-05-10T10:22:44;15.30;99.90
14709;DHT22;7445;50.774;4.944;2023-05-10T10:25:15;15.50;99.90
14709;DHT22;7445;50.774;4.944;2023-05-10T10:30:41;15.50;99.90
14709;DHT22;7445;50.774;4.944;2023-05-10T10:33:18;15.70;99.90
14709;DHT22;7445;50.774;4.944;2023-05-10T10:35:54;15.70;99.90
14709;DHT22;7445;50.774;4.944;2023-05-10T10:38:20;15.70;99.90
14709;DHT22;7445;50.774;4.944;2023-05-10T10:40:56;15.70;99.90
14709;DHT22;7445;50.774;4.944;2023-05-10T10:43:27;15.70;99.90
14709;DHT22;7445;50.774;4.944;2023-05-10T10:48:34;15.80;99.90
14709;DHT22;7445;50.774;4.944;2023-05-10T10:51:02;15.90;99.90
14709;DHT22;7445;50.774;4.944;2023-05-10T10:53:28;15.80;99.90
14709;DHT22;7445;50.774;4.944;2023-05-10T10:56:12;16.00;99.90
14709;DHT22;7445;50.774;4.944;2023-05-10T10:58:41;16.20;99.90
14709;DHT22;7445;50.774;4.944;2023-05-10T11:01:19;16.30;99.90
14709;DHT22;7445;50.774;4.944;2023-05-10T11:06:30;16.40;99.90
14709;DHT22;7445;50.774;4.944;2023-05-10T11:09:09;16.40;99.90
14709;DHT22;7445;50.774;4.944;2023-05-10T11:11:49;16.30;99.90
14709;DHT22;7445;50.774;4.944;2023-05-10T11:14:20;16.40;99.90
14709;DHT22;7445;50.774;4.944;2023-05-10T11:16:46;16.40;99.90
14709;DHT22;7445;50.774;4.944;2023-05-10T11:19:13;16.40;99.90
14709;DHT22;7445;50.774;4.944;2023-05-10T11:21:50;16.20;99.90
14709;DHT22;7445;50.774;4.944;2023-05-10T11:24:19;16.20;99.90
14709;DHT22;7445;50.774;4.944;2023-05-10T11:26:45;16.10;99.90
14709;DHT22;7445;50.774;4.944;2023-05-10T11:29:13;16.30;99.90
14709;DHT22;7445;50.774;4.944;2023-05-10T11:31:43;16.20;99.90
14709;DHT22;7445;50.774;4.944;2023-05-10T11:34:10;16.20;99.90
14709;DHT22;7445;50.774;4.944;2023-05-10T11:36:36;16.20;99.90
14709;DHT22;7445;50.774;4.944;2023-05-10T11:39:04;16.20;99.90
14709;DHT22;7445;50.774;4.944;2023-05-10T11:41:30;16.10;99.90
14709;DHT22;7445;50.774;4.944;2023-05-10T11:43:57;16.10;99.90
14709;DHT22;7445;50.774;4.944;2023-05-10T11:46:24;16.10;99.90
14709;DHT22;7445;50.774;4.944;2023-05-10T11:48:54;16.10;99.90
14709;DHT22;7445;50.774;4.944;2023-05-10T11:51:21;16.10;99.90
14709;DHT22;7445;50.774;4.944;2023-05-10T11:53:48;16.20;99.90
14709;DHT22;7445;50.774;4.944;2023-05-10T11:56:14;16.10;99.90
14709;DHT22;7445;50.774;4.944;2023-05-10T11:58:40;16.20;99.90
14709;DHT22;7445;50.774;4.944;2023-05-10T12:01:07;16.30;99.90
14709;DHT22;7445;50.774;4.944;2023-05-10T12:03:34;16.30;99.90
14709;DHT22;7445;50.774;4.944;2023-05-10T12:06:01;16.30;99.90
14709;DHT22;7445;50.774;4.944;2023-05-10T12:08:29;16.30;99.90
14709;DHT22;7445;50.774;4.944;2023-05-10T12:11:06;16.30;99.90
14709;DHT22;7445;50.774;4.944;2023-05-10T12:13:36;16.30;99.90
14709;DHT22;7445;50.774;4.944;2023-05-10T12:16:14;16.40;99.90
14709;DHT22;7445;50.774;4.944;2023-05-10T12:18:41;16.50;99.90
14709;DHT22;7445;50.774;4.944;2023-05-10T12:21:11;16.60;99.90
14709;DHT22;7445;50.774;4.944;2023-05-10T12:23:38;16.70;99.90
14709;DHT22;7445;50.774;4.944;2023-05-10T12:26:04;16.70;99.90
14709;DHT22;7445;50.774;4.944;2023-05-10T12:28:31;16.70;99.90
14709;DHT22;7445;50.774;4.944;2023-05-10T12:30:59;16.80;99.90
14709;DHT22;7445;50.774;4.944;2023-05-10T12:33:25;16.80;99.90
14709;DHT22;7445;50.774;4.944;2023-05-10T12:35:53;16.90;99.90
14709;DHT22;7445;50.774;4.944;2023-05-10T12:40:51;17.20;99.90
14709;DHT22;7445;50.774;4.944;2023-05-10T12:43:17;17.30;99.90
14709;DHT22;7445;50.774;4.944;2023-05-10T12:45:42;17.50;99.90
14709;DHT22;7445;50.774;4.944;2023-05-10T12:48:13;17.50;99.90
14709;DHT22;7445;50.774;4.944;2023-05-10T12:50:39;17.40;99.90
14709;DHT22;7445;50.774;4.944;2023-05-10T12:53:04;17.40;99.90
14709;DHT22;7445;50.774;4.944;2023-05-10T12:55:30;17.50;99.90
14709;DHT22;7445;50.774;4.944;2023-05-10T12:57:56;17.70;99.90
14709;DHT22;7445;50.774;4.944;2023-05-10T13:00:21;17.70;99.90
14709;DHT22;7445;50.774;4.944;2023-05-10T13:02:47;17.80;99.90
14709;DHT22;7445;50.774;4.944;2023-05-10T13:05:13;17.90;99.90
14709;DHT22;7445;50.774;4.944;2023-05-10T13:07:39;18.00;99.90
14709;DHT22;7445;50.774;4.944;2023-05-10T13:10:05;18.30;99.90
14709;DHT22;7445;50.774;4.944;2023-05-10T13:12:31;18.60;99.90
14709;DHT22;7445;50.774;4.944;2023-05-10T13:14:57;18.80;99.90
14709;DHT22;7445;50.774;4.944;2023-05-10T13:17:25;18.80;99.90
14709;DHT22;7445;50.774;4.944;2023-05-10T13:19:50;18.90;99.90
14709;DHT22;7445;50.774;4.944;2023-05-10T13:22:16;19.00;99.90
14709;DHT22;7445;50.774;4.944;2023-05-10T13:24:42;19.10;99.90
14709;DHT22;7445;50.774;4.944;2023-05-10T13:27:07;19.00;69.90
14709;DHT22;7445;50.774;4.944;2023-05-10T13:29:33;18.80;94.60
14709;DHT22;7445;50.774;4.944;2023-05-10T13:31:59;18.80;95.40
14709;DHT22;7445;50.774;4.944;2023-05-10T13:34:24;18.80;73.10
14709;DHT22;7445;50.774;4.944;2023-05-10T13:36:51;18.70;99.60
14709;DHT22;7445;50.774;4.944;2023-05-10T13:39:18;18.80;98.80
14709;DHT22;7445;50.774;4.944;2023-05-10T13:41:43;18.60;79.00
14709;DHT22;7445;50.774;4.944;2023-05-10T13:44:11;18.70;99.90
14709;DHT22;7445;50.774;4.944;2023-05-10T13:46:37;18.70;99.90
14709;DHT22;7445;50.774;4.944;2023-05-10T13:49:04;18.80;99.90
14709;DHT22;7445;50.774;4.944;2023-05-10T13:51:30;19.00;99.90
14709;DHT22;7445;50.774;4.944;2023-05-10T13:53:57;19.20;99.90
14709;DHT22;7445;50.774;4.944;2023-05-10T13:56:23;19.30;99.90
14709;DHT22;7445;50.774;4.944;2023-05-10T13:58:48;19.50;99.90
14709;DHT22;7445;50.774;4.944;2023-05-10T14:01:14;19.70;99.90
14709;DHT22;7445;50.774;4.944;2023-05-10T14:03:40;20.40;99.90
14709;DHT22;7445;50.774;4.944;2023-05-10T14:06:06;20.80;99.90
14709;DHT22;7445;50.774;4.944;2023-05-10T14:08:33;21.00;99.90
14709;DHT22;7445;50.774;4.944;2023-05-10T14:10:59;20.90;99.90
14709;DHT22;7445;50.774;4.944;2023-05-10T14:13:25;20.50;99.90
14709;DHT22;7445;50.774;4.944;2023-05-10T14:15:52;20.40;99.90
14709;DHT22;7445;50.774;4.944;2023-05-10T14:18:18;20.50;99.90
14709;DHT22;7445;50.774;4.944;2023-05-10T14:20:43;20.40;99.90
14709;DHT22;7445;50.774;4.944;2023-05-10T14:23:09;20.10;99.90
14709;DHT22;7445;50.774;4.944;2023-05-10T14:25:35;20.40;99.90
14709;DHT22;7445;50.774;4.944;2023-05-10T14:28:01;20.40;99.90
14709;DHT22;7445;50.774;4.944;2023-05-10T14:30:26;20.50;99.90
14709;DHT22;7445;50.774;4.944;2023-05-10T14:32:52;20.30;99.90
14709;DHT22;7445;50.774;4.944;2023-05-10T14:35:19;19.90;99.90
14709;DHT22;7445;50.774;4.944;2023-05-10T14:37:45;19.60;99.90
14709;DHT22;7445;50.774;4.944;2023-05-10T14:40:11;19.60;99.90
14709;DHT22;7445;50.774;4.944;2023-05-10T14:42:37;19.70;99.90
14709;DHT22;7445;50.774;4.944;2023-05-10T14:45:04;19.80;99.90
14709;DHT22;7445;50.774;4.944;2023-05-10T14:47:29;20.10;99.90
14709;DHT22;7445;50.774;4.944;2023-05-10T14:49:55;20.00;99.90
14709;DHT22;7445;50.774;4.944;2023-05-10T14:52:21;20.20;99.90
14709;DHT22;7445;50.774;4.944;2023-05-10T14:54:47;20.00;99.90
14709;DHT22;7445;50.774;4.944;2023-05-10T14:57:12;19.80;99.90
14709;DHT22;7445;50.774;4.944;2023-05-10T14:59:38;19.80;99.90
14709;DHT22;7445;50.774;4.944;2023-05-10T15:02:04;19.80;99.90
14709;DHT22;7445;50.774;4.944;2023-05-10T15:04:30;19.70;99.90
14709;DHT22;7445;50.774;4.944;2023-05-10T15:06:56;19.90;99.90
14709;DHT22;7445;50.774;4.944;2023-05-10T15:09:25;19.90;99.90
14709;DHT22;7445;50.774;4.944;2023-05-10T15:11:53;19.80;99.90
14709;DHT22;7445;50.774;4.944;2023-05-10T15:14:18;19.60;99.90
14709;DHT22;7445;50.774;4.944;2023-05-10T15:16:44;19.60;99.90
14709;DHT22;7445;50.774;4.944;2023-05-10T15:19:09;19.50;99.90
14709;DHT22;7445;50.774;4.944;2023-05-10T15:21:35;19.50;99.90
14709;DHT22;7445;50.774;4.944;2023-05-10T15:24:07;19.30;99.90
14709;DHT22;7445;50.774;4.944;2023-05-10T15:26:33;19.10;99.90
14709;DHT22;7445;50.774;4.944;2023-05-10T15:28:58;19.30;99.90
14709;DHT22;7445;50.774;4.944;2023-05-10T15:31:24;19.30;99.90
14709;DHT22;7445;50.774;4.944;2023-05-10T15:33:50;19.30;99.90
14709;DHT22;7445;50.774;4.944;2023-05-10T15:36:16;19.40;99.90
14709;DHT22;7445;50.774;4.944;2023-05-10T15:38:43;19.40;99.90
14709;DHT22;7445;50.774;4.944;2023-05-10T15:41:09;19.30;99.90
14709;DHT22;7445;50.774;4.944;2023-05-10T15:43:35;19.20;99.90
14709;DHT22;7445;50.774;4.944;2023-05-10T15:46:01;19.30;99.90
14709;DHT22;7445;50.774;4.944;2023-05-10T15:48:27;19.50;99.90
14709;DHT22;7445;50.774;4.944;2023-05-10T15:50:53;19.70;99.90
14709;DHT22;7445;50.774;4.944;2023-05-10T15:53:19;20.10;99.90
14709;DHT22;7445;50.774;4.944;2023-05-10T15:55:45;20.50;99.90
14709;DHT22;7445;50.774;4.944;2023-05-10T15:58:11;20.60;99.90
14709;DHT22;7445;50.774;4.944;2023-05-10T16:00:37;20.30;99.90
14709;DHT22;7445;50.774;4.944;2023-05-10T16:03:03;20.40;99.90
14709;DHT22;7445;50.774;4.944;2023-05-10T16:05:30;20.50;99.90
14709;DHT22;7445;50.774;4.944;2023-05-10T16:07:58;20.60;99.90
14709;DHT22;7445;50.774;4.944;2023-05-10T16:10:24;20.80;99.90
14709;DHT22;7445;50.774;4.944;2023-05-10T16:12:49;20.80;99.90
14709;DHT22;7445;50.774;4.944;2023-05-10T16:15:15;20.30;99.90
14709;DHT22;7445;50.774;4.944;2023-05-10T16:17:42;19.90;99.90
14709;DHT22;7445;50.774;4.944;2023-05-10T16:20:08;19.80;99.90
14709;DHT22;7445;50.774;4.944;2023-05-10T16:22:34;19.90;99.90
14709;DHT22;7445;50.774;4.944;2023-05-10T16:25:00;19.80;99.90
14709;DHT22;7445;50.774;4.944;2023-05-10T16:27:26;19.90;99.90
14709;DHT22;7445;50.774;4.944;2023-05-10T16:29:54;19.60;99.90
14709;DHT22;7445;50.774;4.944;2023-05-10T16:32:20;19.20;99.90
14709;DHT22;7445;50.774;4.944;2023-05-10T16:34:45;18.80;99.90
14709;DHT22;7445;50.774;4.944;2023-05-10T16:37:11;18.50;99.90
14709;DHT22;7445;50.774;4.944;2023-05-10T16:39:37;18.40;99.90
14709;DHT22;7445;50.774;4.944;2023-05-10T16:42:03;18.20;99.90
14709;DHT22;7445;50.774;4.944;2023-05-10T16:44:28;18.00;99.90
14709;DHT22;7445;50.774;4.944;2023-05-10T16:46:54;17.70;99.90
14709;DHT22;7445;50.774;4.944;2023-05-10T16:49:20;17.40;99.90
14709;DHT22;7445;50.774;4.944;2023-05-10T16:51:46;17.10;99.90
14709;DHT22;7445;50.774;4.944;2023-05-10T16:54:12;17.00;99.90
14709;DHT22;7445;50.774;4.944;2023-05-10T16:56:38;16.90;99.90
14709;DHT22;7445;50.774;4.944;2023-05-10T16:59:03;16.70;99.90
14709;DHT22;7445;50.774;4.944;2023-05-10T17:01:30;16.60;99.90
14709;DHT22;7445;50.774;4.944;2023-05-10T17:03:55;16.50;99.90
14709;DHT22;7445;50.774;4.944;2023-05-10T17:06:21;16.40;99.90
14709;DHT22;7445;50.774;4.944;2023-05-10T17:08:47;16.20;99.90
14709;DHT22;7445;50.774;4.944;2023-05-10T17:11:12;16.20;99.90
14709;DHT22;7445;50.774;4.944;2023-05-10T17:13:38;16.20;99.90
14709;DHT22;7445;50.774;4.944;2023-05-10T17:16:04;16.10;99.90
14709;DHT22;7445;50.774;4.944;2023-05-10T17:18:30;16.00;99.90
14709;DHT22;7445;50.774;4.944;2023-05-10T17:20:55;15.90;99.90
14709;DHT22;7445;50.774;4.944;2023-05-10T17:23:21;16.00;99.90
14709;DHT22;7445;50.774;4.944;2023-05-10T17:25:47;16.00;99.90
14709;DHT22;7445;50.774;4.944;2023-05-10T17:28:12;16.10;99.90
14709;DHT22;7445;50.774;4.944;2023-05-10T17:30:38;16.20;99.90
14709;DHT22;7445;50.774;4.944;2023-05-10T17:33:04;16.10;99.90
14709;DHT22;7445;50.774;4.944;2023-05-10T17:35:30;16.20;99.90
14709;DHT22;7445;50.774;4.944;2023-05-10T17:37:57;16.40;99.90
14709;DHT22;7445;50.774;4.944;2023-05-10T17:40:23;16.40;99.90
14709;DHT22;7445;50.774;4.944;2023-05-10T17:42:48;16.50;99.90
14709;DHT22;7445;50.774;4.944;2023-05-10T17:45:16;16.40;99.90
14709;DHT22;7445;50.774;4.944;2023-05-10T17:47:41;16.30;99.90
14709;DHT22;7445;50.774;4.944;2023-05-10T17:50:08;16.30;99.90
14709;DHT22;7445;50.774;4.944;2023-05-10T17:52:36;16.30;99.90
14709;DHT22;7445;50.774;4.944;2023-05-10T17:55:02;16.30;99.90
14709;DHT22;7445;50.774;4.944;2023-05-10T17:57:28;16.30;99.90
14709;DHT22;7445;50.774;4.944;2023-05-10T17:59:54;16.30;99.90
14709;DHT22;7445;50.774;4.944;2023-05-10T18:02:20;16.30;99.90
14709;DHT22;7445;50.774;4.944;2023-05-10T18:04:45;16.20;99.90
14709;DHT22;7445;50.774;4.944;2023-05-10T18:07:13;16.10;99.90
14709;DHT22;7445;50.774;4.944;2023-05-10T18:09:39;15.90;99.90
14709;DHT22;7445;50.774;4.944;2023-05-10T18:12:05;15.70;99.90
14709;DHT22;7445;50.774;4.944;2023-05-10T18:14:31;15.70;99.90
14709;DHT22;7445;50.774;4.944;2023-05-10T18:16:56;15.80;99.90
14709;DHT22;7445;50.774;4.944;2023-05-10T18:19:23;15.80;99.90
14709;DHT22;7445;50.774;4.944;2023-05-10T18:21:51;15.80;99.90
14709;DHT22;7445;50.774;4.944;2023-05-10T18:24:18;15.70;99.90
14709;DHT22;7445;50.774;4.944;2023-05-10T18:26:45;15.70;99.90
14709;DHT22;7445;50.774;4.944;2023-05-10T18:29:11;15.60;99.90
14709;DHT22;7445;50.774;4.944;2023-05-10T18:31:37;15.60;99.90
14709;DHT22;7445;50.774;4.944;2023-05-10T18:34:02;15.50;99.90
14709;DHT22;7445;50.774;4.944;2023-05-10T18:36:30;15.50;99.90
14709;DHT22;7445;50.774;4.944;2023-05-10T18:38:56;15.50;99.90
14709;DHT22;7445;50.774;4.944;2023-05-10T18:41:23;15.40;99.90
14709;DHT22;7445;50.774;4.944;2023-05-10T18:43:52;15.40;99.90
14709;DHT22;7445;50.774;4.944;2023-05-10T18:49:32;15.30;99.90
14709;DHT22;7445;50.774;4.944;2023-05-10T18:51:58;15.20;99.90
14709;DHT22;7445;50.774;4.944;2023-05-10T18:54:25;15.20;99.90
14709;DHT22;7445;50.774;4.944;2023-05-10T18:56:52;15.20;99.90
14709;DHT22;7445;50.774;4.944;2023-05-10T18:59:20;15.10;99.90
14709;DHT22;7445;50.774;4.944;2023-05-10T19:01:48;15.10;99.90
14709;DHT22;7445;50.774;4.944;2023-05-10T19:04:14;15.10;99.90
14709;DHT22;7445;50.774;4.944;2023-05-10T19:06:43;15.00;99.90
14709;DHT22;7445;50.774;4.944;2023-05-10T19:09:09;15.00;99.90
14709;DHT22;7445;50.774;4.944;2023-05-10T19:11:36;15.00;99.90
14709;DHT22;7445;50.774;4.944;2023-05-10T19:14:02;14.90;99.90
14709;DHT22;7445;50.774;4.944;2023-05-10T19:16:33;14.90;99.90
14709;DHT22;7445;50.774;4.944;2023-05-10T19:18:59;14.90;99.90
14709;DHT22;7445;50.774;4.944;2023-05-10T19:21:24;14.90;99.90
14709;DHT22;7445;50.774;4.944;2023-05-10T19:23:52;14.80;99.90
14709;DHT22;7445;50.774;4.944;2023-05-10T19:26:21;14.70;99.90
14709;DHT22;7445;50.774;4.944;2023-05-10T19:29:26;14.80;99.90
14709;DHT22;7445;50.774;4.944;2023-05-10T19:31:52;14.70;99.90
14709;DHT22;7445;50.774;4.944;2023-05-10T19:34:19;14.70;99.90
14709;DHT22;7445;50.774;4.944;2023-05-10T19:36:44;14.70;99.90
14709;DHT22;7445;50.774;4.944;2023-05-10T19:39:11;14.60;99.90
14709;DHT22;7445;50.774;4.944;2023-05-10T19:41:38;14.60;99.90
14709;DHT22;7445;50.774;4.944;2023-05-10T19:44:07;14.60;99.90
14709;DHT22;7445;50.774;4.944;2023-05-10T19:46:36;14.60;99.90
14709;DHT22;7445;50.774;4.944;2023-05-10T19:49:22;14.60;99.90
14709;DHT22;7445;50.774;4.944;2023-05-10T19:52:15;14.60;99.90
14709;DHT22;7445;50.774;4.944;2023-05-10T19:54:52;14.60;99.90
14709;DHT22;7445;50.774;4.944;2023-05-10T19:57:19;14.60;99.90
14709;DHT22;7445;50.774;4.944;2023-05-10T20:00:29;14.50;99.90
14709;DHT22;7445;50.774;4.944;2023-05-10T20:03:08;14.40;99.90
14709;DHT22;7445;50.774;4.944;2023-05-10T20:05:50;14.50;99.90
14709;DHT22;7445;50.774;4.944;2023-05-10T20:08:21;14.40;99.90
14709;DHT22;7445;50.774;4.944;2023-05-10T20:11:08;14.40;99.90
14709;DHT22;7445;50.774;4.944;2023-05-10T20:13:34;14.40;99.90
14709;DHT22;7445;50.774;4.944;2023-05-10T20:16:42;14.30;99.90
14709;DHT22;7445;50.774;4.944;2023-05-10T20:19:09;14.30;99.90
14709;DHT22;7445;50.774;4.944;2023-05-10T20:21:42;14.30;99.90
14709;DHT22;7445;50.774;4.944;2023-05-10T20:25:10;14.20;99.90
14709;DHT22;7445;50.774;4.944;2023-05-10T20:28:08;14.20;99.90
14709;DHT22;7445;50.774;4.944;2023-05-10T20:30:57;14.10;99.90
14709;DHT22;7445;50.774;4.944;2023-05-10T20:34:28;14.10;99.90
14709;DHT22;7445;50.774;4.944;2023-05-10T20:37:35;14.10;99.90
14709;DHT22;7445;50.774;4.944;2023-05-10T20:40:21;14.10;99.90
14709;DHT22;7445;50.774;4.944;2023-05-10T20:43:06;14.10;99.90
14709;DHT22;7445;50.774;4.944;2023-05-10T20:45:32;14.10;99.90
14709;DHT22;7445;50.774;4.944;2023-05-10T20:47:58;14.20;99.90
14709;DHT22;7445;50.774;4.944;2023-05-10T20:50:24;14.20;99.90
14709;DHT22;7445;50.774;4.944;2023-05-10T20:52:51;14.20;99.90
14709;DHT22;7445;50.774;4.944;2023-05-10T20:55:17;14.10;99.90
14709;DHT22;7445;50.774;4.944;2023-05-10T20:57:43;14.10;99.90
14709;DHT22;7445;50.774;4.944;2023-05-10T21:00:10;14.10;99.90
14709;DHT22;7445;50.774;4.944;2023-05-10T21:02:36;14.20;99.90
14709;DHT22;7445;50.774;4.944;2023-05-10T21:05:01;14.20;99.90
14709;DHT22;7445;50.774;4.944;2023-05-10T21:07:27;14.10;99.90
14709;DHT22;7445;50.774;4.944;2023-05-10T21:09:52;14.00;99.90
14709;DHT22;7445;50.774;4.944;2023-05-10T21:12:18;14.00;99.90
14709;DHT22;7445;50.774;4.944;2023-05-10T21:14:44;14.10;99.90
14709;DHT22;7445;50.774;4.944;2023-05-10T21:17:12;14.10;99.90
14709;DHT22;7445;50.774;4.944;2023-05-10T21:19:38;14.10;99.90
14709;DHT22;7445;50.774;4.944;2023-05-10T21:22:04;14.10;99.90
14709;DHT22;7445;50.774;4.944;2023-05-10T21:24:30;14.10;99.90
14709;DHT22;7445;50.774;4.944;2023-05-10T21:26:56;14.20;99.90
14709;DHT22;7445;50.774;4.944;2023-05-10T21:29:21;14.10;99.90
14709;DHT22;7445;50.774;4.944;2023-05-10T21:31:47;14.10;99.90
